sensor_id;sensor_type;location;lat;lon;timestamp;temperature;humidity
9482;DHT22;4779;48.062;11.672;2023-11-19T00:01:02;4.70;99.90
9482;DHT22;4779;48.062;11.672;2023-11-19T00:03:32;4.70;99.90
9482;DHT22;4779;48.062;11.672;2023-11-19T00:06:00;4.50;99.90
9482;DHT22;4779;48.062;11.672;2023-11-19T00:08:28;4.60;99.90
9482;DHT22;4779;48.062;11.672;2023-11-19T00:11:01;4.70;99.90
9482;DHT22;4779;48.062;11.672;2023-11-19T00:13:28;4.50;99.90
9482;DHT22;4779;48.062;11.672;2023-11-19T00:15:55;4.70;99.90
9482;DHT22;4779;48.062;11.672;2023-11-19T00:18:23;4.70;99.90
9482;DHT22;4779;48.062;11.672;2023-11-19T00:20:51;4.70;99.90
9482;DHT22;4779;48.062;11.672;2023-11-19T00:23:18;4.70;99.90
9482;DHT22;4779;48.062;11.672;2023-11-19T00:25:45;4.70;99.90
9482;DHT22;4779;48.062;11.672;2023-11-19T00:28:13;4.80;99.90
9482;DHT22;4779;48.062;11.672;2023-11-19T00:30:40;4.80;99.90
9482;DHT22;4779;48.062;11.672;2023-11-19T00:33:07;4.60;99.90
9482;DHT22;4779;48.062;11.672;2023-11-19T00:35:34;4.80;99.90
9482;DHT22;4779;48.062;11.672;2023-11-19T00:38:03;4.80;99.90
9482;DHT22;4779;48.062;11.672;2023-11-19T00:40:30;4.70;99.90
9482;DHT22;4779;48.062;11.672;2023-11-19T00:42:57;4.90;99.90
9482;DHT22;4779;48.062;11.672;2023-11-19T00:45:24;5.00;99.90
9482;DHT22;4779;48.062;11.672;2023-11-19T00:47:52;4.80;99.90
9482;DHT22;4779;48.062;11.672;2023-11-19T00:50:19;5.00;99.90
9482;DHT22;4779;48.062;11.672;2023-11-19T00:52:46;5.00;99.90
9482;DHT22;4779;48.062;11.672;2023-11-19T00:55:15;5.00;99.90
9482;DHT22;4779;48.062;11.672;2023-11-19T00:57:43;5.00;99.90
9482;DHT22;4779;48.062;11.672;2023-11-19T01:00:10;4.90;99.90
9482;DHT22;4779;48.062;11.672;2023-11-19T01:02:44;4.90;99.90
9482;DHT22;4779;48.062;11.672;2023-11-19T01:05:11;4.80;99.90
9482;DHT22;4779;48.062;11.672;2023-11-19T01:07:40;4.90;99.90
9482;DHT22;4779;48.062;11.672;2023-11-19T01:10:07;5.00;99.90
9482;DHT22;4779;48.062;11.672;2023-11-19T01:12:37;4.90;99.90
9482;DHT22;4779;48.062;11.672;2023-11-19T01:15:05;5.10;99.90
9482;DHT22;4779;48.062;11.672;2023-11-19T01:17:32;4.90;99.90
9482;DHT22;4779;48.062;11.672;2023-11-19T01:19:59;5.10;99.90
9482;DHT22;4779;48.062;11.672;2023-11-19T01:22:26;5.00;99.90
9482;DHT22;4779;48.062;11.672;2023-11-19T01:24:53;5.20;99.90
9482;DHT22;4779;48.062;11.672;2023-11-19T01:27:20;5.10;99.90
9482;DHT22;4779;48.062;11.672;2023-11-19T01:29:48;5.10;99.90
9482;DHT22;4779;48.062;11.672;2023-11-19T01:32:15;5.20;99.90
9482;DHT22;4779;48.062;11.672;2023-11-19T01:34:42;5.20;99.90
9482;DHT22;4779;48.062;11.672;2023-11-19T01:37:09;5.10;99.90
9482;DHT22;4779;48.062;11.672;2023-11-19T01:39:38;5.20;99.90
9482;DHT22;4779;48.062;11.672;2023-11-19T01:42:05;5.20;99.90
9482;DHT22;4779;48.062;11.672;2023-11-19T01:44:32;5.20;99.90
9482;DHT22;4779;48.062;11.672;2023-11-19T01:47:01;5.10;99.90
9482;DHT22;4779;48.062;11.672;2023-11-19T01:49:30;5.20;99.90
9482;DHT22;4779;48.062;11.672;2023-11-19T01:51:58;5.30;99.90
9482;DHT22;4779;48.062;11.672;2023-11-19T01:54:25;5.30;99.90
9482;DHT22;4779;48.062;11.672;2023-11-19T01:56:54;5.30;99.90
9482;DHT22;4779;48.062;11.672;2023-11-19T01:59:22;5.30;99.90
9482;DHT22;4779;48.062;11.672;2023-11-19T02:01:52;5.30;99.90
9482;DHT22;4779;48.062;11.672;2023-11-19T02:04:21;5.20;99.90
9482;DHT22;4779;48.062;11.672;2023-11-19T02:06:49;5.40;99.90
9482;DHT22;4779;48.062;11.672;2023-11-19T02:09:18;5.40;99.90
9482;DHT22;4779;48.062;11.672;2023-11-19T02:11:46;5.40;99.90
9482;DHT22;4779;48.062;11.672;2023-11-19T02:14:17;5.50;99.90
9482;DHT22;4779;48.062;11.672;2023-11-19T02:16:45;5.50;99.90
9482;DHT22;4779;48.062;11.672;2023-11-19T02:19:12;5.40;99.90
9482;DHT22;4779;48.062;11.672;2023-11-19T02:21:41;5.60;99.90
9482;DHT22;4779;48.062;11.672;2023-11-19T02:24:11;5.50;99.90
9482;DHT22;4779;48.062;11.672;2023-11-19T02:26:47;5.60;99.90
9482;DHT22;4779;48.062;11.672;2023-11-19T02:29:15;5.50;99.90
9482;DHT22;4779;48.062;11.672;2023-11-19T02:31:42;5.60;99.90
9482;DHT22;4779;48.062;11.672;2023-11-19T02:34:10;5.70;99.90
9482;DHT22;4779;48.062;11.672;2023-11-19T02:36:39;5.80;99.90
9482;DHT22;4779;48.062;11.672;2023-11-19T02:39:07;5.80;99.90
9482;DHT22;4779;48.062;11.672;2023-11-19T02:41:36;5.90;99.90
9482;DHT22;4779;48.062;11.672;2023-11-19T02:44:05;5.80;99.90
9482;DHT22;4779;48.062;11.672;2023-11-19T02:46:34;5.90;99.90
9482;DHT22;4779;48.062;11.672;2023-11-19T02:49:01;5.90;99.90
9482;DHT22;4779;48.062;11.672;2023-11-19T02:51:28;5.90;99.90
9482;DHT22;4779;48.062;11.672;2023-11-19T02:53:56;6.10;99.90
9482;DHT22;4779;48.062;11.672;2023-11-19T02:56:24;6.20;99.90
9482;DHT22;4779;48.062;11.672;2023-11-19T02:58:52;6.20;99.90
9482;DHT22;4779;48.062;11.672;2023-11-19T03:01:22;6.30;99.90
9482;DHT22;4779;48.062;11.672;2023-11-19T03:03:56;6.40;99.90
9482;DHT22;4779;48.062;11.672;2023-11-19T03:06:23;6.40;99.90
9482;DHT22;4779;48.062;11.672;2023-11-19T03:08:51;6.50;99.90
9482;DHT22;4779;48.062;11.672;2023-11-19T03:11:18;6.40;99.90
9482;DHT22;4779;48.062;11.672;2023-11-19T03:13:45;6.60;99.90
9482;DHT22;4779;48.062;11.672;2023-11-19T03:16:12;6.60;99.90
9482;DHT22;4779;48.062;11.672;2023-11-19T03:18:39;6.50;99.90
9482;DHT22;4779;48.062;11.672;2023-11-19T03:21:08;6.70;99.90
9482;DHT22;4779;48.062;11.672;2023-11-19T03:23:35;6.70;99.90
9482;DHT22;4779;48.062;11.672;2023-11-19T03:26:04;6.60;99.90
9482;DHT22;4779;48.062;11.672;2023-11-19T03:28:31;6.70;99.90
9482;DHT22;4779;48.062;11.672;2023-11-19T03:30:58;6.60;99.90
9482;DHT22;4779;48.062;11.672;2023-11-19T03:33:25;6.70;99.90
9482;DHT22;4779;48.062;11.672;2023-11-19T03:35:53;6.70;99.90
9482;DHT22;4779;48.062;11.672;2023-11-19T03:38:23;6.50;99.90
9482;DHT22;4779;48.062;11.672;2023-11-19T03:40:50;6.60;99.90
9482;DHT22;4779;48.062;11.672;2023-11-19T03:43:17;6.80;99.90
9482;DHT22;4779;48.062;11.672;2023-11-19T03:45:45;6.80;99.90
9482;DHT22;4779;48.062;11.672;2023-11-19T03:48:13;6.80;99.90
9482;DHT22;4779;48.062;11.672;2023-11-19T03:50:41;6.80;99.90
9482;DHT22;4779;48.062;11.672;2023-11-19T03:53:08;6.80;99.90
9482;DHT22;4779;48.062;11.672;2023-11-19T03:55:37;6.90;99.90
9482;DHT22;4779;48.062;11.672;2023-11-19T03:58:04;6.80;99.90
9482;DHT22;4779;48.062;11.672;2023-11-19T04:00:31;6.90;99.90
9482;DHT22;4779;48.062;11.672;2023-11-19T04:02:58;6.90;99.90
9482;DHT22;4779;48.062;11.672;2023-11-19T04:05:26;6.90;99.90
9482;DHT22;4779;48.062;11.672;2023-11-19T04:07:53;6.80;99.90
9482;DHT22;4779;48.062;11.672;2023-11-19T04:10:20;6.90;99.90
9482;DHT22;4779;48.062;11.672;2023-11-19T04:12:49;7.00;99.90
9482;DHT22;4779;48.062;11.672;2023-11-19T04:15:16;7.10;99.90
9482;DHT22;4779;48.062;11.672;2023-11-19T04:17:43;7.10;99.90
9482;DHT22;4779;48.062;11.672;2023-11-19T04:20:11;7.00;99.90
9482;DHT22;4779;48.062;11.672;2023-11-19T04:22:39;7.10;99.90
9482;DHT22;4779;48.062;11.672;2023-11-19T04:25:07;7.10;99.90
9482;DHT22;4779;48.062;11.672;2023-11-19T04:27:34;7.20;99.90
9482;DHT22;4779;48.062;11.672;2023-11-19T04:30:03;7.20;99.90
9482;DHT22;4779;48.062;11.672;2023-11-19T04:32:31;7.20;99.90
9482;DHT22;4779;48.062;11.672;2023-11-19T04:34:58;7.00;99.90
9482;DHT22;4779;48.062;11.672;2023-11-19T04:37:25;7.10;99.90
9482;DHT22;4779;48.062;11.672;2023-11-19T04:39:52;7.00;99.90
9482;DHT22;4779;48.062;11.672;2023-11-19T04:42:19;7.00;99.90
9482;DHT22;4779;48.062;11.672;2023-11-19T04:44:46;7.10;99.90
9482;DHT22;4779;48.062;11.672;2023-11-19T04:47:14;7.10;99.90
9482;DHT22;4779;48.062;11.672;2023-11-19T04:49:41;7.20;99.90
9482;DHT22;4779;48.062;11.672;2023-11-19T04:52:09;7.40;99.90
9482;DHT22;4779;48.062;11.672;2023-11-19T04:54:41;7.30;99.90
9482;DHT22;4779;48.062;11.672;2023-11-19T04:57:08;7.50;99.90
9482;DHT22;4779;48.062;11.672;2023-11-19T04:59:36;7.70;99.90
9482;DHT22;4779;48.062;11.672;2023-11-19T05:02:03;7.80;99.90
9482;DHT22;4779;48.062;11.672;2023-11-19T05:04:32;7.80;99.90
9482;DHT22;4779;48.062;11.672;2023-11-19T05:06:59;7.90;99.90
9482;DHT22;4779;48.062;11.672;2023-11-19T05:09:26;8.00;99.90
9482;DHT22;4779;48.062;11.672;2023-11-19T05:11:53;8.20;99.90
9482;DHT22;4779;48.062;11.672;2023-11-19T05:14:20;8.40;99.90
9482;DHT22;4779;48.062;11.672;2023-11-19T05:16:47;8.30;99.90
9482;DHT22;4779;48.062;11.672;2023-11-19T05:19:14;8.40;99.90
9482;DHT22;4779;48.062;11.672;2023-11-19T05:21:43;8.50;99.90
9482;DHT22;4779;48.062;11.672;2023-11-19T05:24:10;8.60;99.90
9482;DHT22;4779;48.062;11.672;2023-11-19T05:26:38;8.60;99.90
9482;DHT22;4779;48.062;11.672;2023-11-19T05:29:06;8.60;99.90
9482;DHT22;4779;48.062;11.672;2023-11-19T05:31:33;8.60;99.90
9482;DHT22;4779;48.062;11.672;2023-11-19T05:34:00;8.60;99.90
9482;DHT22;4779;48.062;11.672;2023-11-19T05:36:27;8.70;99.90
9482;DHT22;4779;48.062;11.672;2023-11-19T05:38:56;8.80;99.90
9482;DHT22;4779;48.062;11.672;2023-11-19T05:41:23;8.70;99.90
9482;DHT22;4779;48.062;11.672;2023-11-19T05:43:50;8.80;99.90
9482;DHT22;4779;48.062;11.672;2023-11-19T05:46:20;8.80;99.90
9482;DHT22;4779;48.062;11.672;2023-11-19T05:48:47;8.80;99.90
9482;DHT22;4779;48.062;11.672;2023-11-19T05:51:14;8.90;99.90
9482;DHT22;4779;48.062;11.672;2023-11-19T05:53:41;8.90;99.90
9482;DHT22;4779;48.062;11.672;2023-11-19T05:56:10;8.90;99.90
9482;DHT22;4779;48.062;11.672;2023-11-19T05:58:37;8.90;99.90
9482;DHT22;4779;48.062;11.672;2023-11-19T06:01:06;8.80;99.90
9482;DHT22;4779;48.062;11.672;2023-11-19T06:03:33;8.90;99.90
9482;DHT22;4779;48.062;11.672;2023-11-19T06:06:01;8.80;99.90
9482;DHT22;4779;48.062;11.672;2023-11-19T06:08:28;8.80;99.90
9482;DHT22;4779;48.062;11.672;2023-11-19T06:10:56;8.90;99.90
9482;DHT22;4779;48.062;11.672;2023-11-19T06:13:24;8.90;99.90
9482;DHT22;4779;48.062;11.672;2023-11-19T06:15:52;9.00;99.90
9482;DHT22;4779;48.062;11.672;2023-11-19T06:18:19;9.00;99.90
9482;DHT22;4779;48.062;11.672;2023-11-19T06:20:46;8.90;99.90
9482;DHT22;4779;48.062;11.672;2023-11-19T06:23:13;8.90;99.90
9482;DHT22;4779;48.062;11.672;2023-11-19T06:25:40;8.90;99.90
9482;DHT22;4779;48.062;11.672;2023-11-19T06:28:07;8.90;99.90
9482;DHT22;4779;48.062;11.672;2023-11-19T06:30:36;8.90;99.90
9482;DHT22;4779;48.062;11.672;2023-11-19T06:33:03;9.00;99.90
9482;DHT22;4779;48.062;11.672;2023-11-19T06:35:30;9.10;99.90
9482;DHT22;4779;48.062;11.672;2023-11-19T06:38:02;8.90;99.90
9482;DHT22;4779;48.062;11.672;2023-11-19T06:40:30;9.10;99.90
9482;DHT22;4779;48.062;11.672;2023-11-19T06:42:57;9.10;99.90
9482;DHT22;4779;48.062;11.672;2023-11-19T06:45:24;9.10;99.90
9482;DHT22;4779;48.062;11.672;2023-11-19T06:47:52;9.10;99.90
9482;DHT22;4779;48.062;11.672;2023-11-19T06:50:19;9.00;99.90
9482;DHT22;4779;48.062;11.672;2023-11-19T06:52:46;9.20;99.90
9482;DHT22;4779;48.062;11.672;2023-11-19T06:55:14;9.10;99.90
9482;DHT22;4779;48.062;11.672;2023-11-19T06:57:41;9.10;99.90
9482;DHT22;4779;48.062;11.672;2023-11-19T07:00:09;9.20;99.90
9482;DHT22;4779;48.062;11.672;2023-11-19T07:02:37;9.30;99.90
9482;DHT22;4779;48.062;11.672;2023-11-19T07:05:07;9.20;99.90
9482;DHT22;4779;48.062;11.672;2023-11-19T07:07:34;9.20;99.90
9482;DHT22;4779;48.062;11.672;2023-11-19T07:10:02;9.20;99.90
9482;DHT22;4779;48.062;11.672;2023-11-19T07:12:30;9.30;99.90
9482;DHT22;4779;48.062;11.672;2023-11-19T07:14:57;9.30;99.90
9482;DHT22;4779;48.062;11.672;2023-11-19T07:17:24;9.40;99.90
9482;DHT22;4779;48.062;11.672;2023-11-19T07:19:51;9.30;99.90
9482;DHT22;4779;48.062;11.672;2023-11-19T07:22:20;9.30;99.90
9482;DHT22;4779;48.062;11.672;2023-11-19T07:24:47;9.30;99.90
9482;DHT22;4779;48.062;11.672;2023-11-19T07:27:14;9.30;99.90
9482;DHT22;4779;48.062;11.672;2023-11-19T07:29:43;9.20;99.90
9482;DHT22;4779;48.062;11.672;2023-11-19T07:32:11;9.40;99.90
9482;DHT22;4779;48.062;11.672;2023-11-19T07:34:39;9.30;99.90
9482;DHT22;4779;48.062;11.672;2023-11-19T07:37:06;9.50;99.90
9482;DHT22;4779;48.062;11.672;2023-11-19T07:39:35;9.50;99.90
9482;DHT22;4779;48.062;11.672;2023-11-19T07:42:03;9.50;99.90
9482;DHT22;4779;48.062;11.672;2023-11-19T07:44:30;9.50;99.90
9482;DHT22;4779;48.062;11.672;2023-11-19T07:46:57;9.50;99.90
9482;DHT22;4779;48.062;11.672;2023-11-19T07:49:25;9.60;99.90
9482;DHT22;4779;48.062;11.672;2023-11-19T07:51:52;9.60;99.90
9482;DHT22;4779;48.062;11.672;2023-11-19T07:54:19;9.70;99.90
9482;DHT22;4779;48.062;11.672;2023-11-19T07:56:48;9.60;99.90
9482;DHT22;4779;48.062;11.672;2023-11-19T07:59:16;9.70;99.90
9482;DHT22;4779;48.062;11.672;2023-11-19T08:01:43;9.70;99.90
9482;DHT22;4779;48.062;11.672;2023-11-19T08:04:10;9.70;99.90
9482;DHT22;4779;48.062;11.672;2023-11-19T08:06:37;9.80;99.90
9482;DHT22;4779;48.062;11.672;2023-11-19T08:09:04;9.60;99.90
9482;DHT22;4779;48.062;11.672;2023-11-19T08:11:32;9.80;99.90
9482;DHT22;4779;48.062;11.672;2023-11-19T08:14:00;9.70;99.90
9482;DHT22;4779;48.062;11.672;2023-11-19T08:16:28;9.80;99.90
9482;DHT22;4779;48.062;11.672;2023-11-19T08:18:55;9.70;99.90
9482;DHT22;4779;48.062;11.672;2023-11-19T08:21:24;9.80;99.90
9482;DHT22;4779;48.062;11.672;2023-11-19T08:23:52;9.70;99.90
9482;DHT22;4779;48.062;11.672;2023-11-19T08:26:19;9.80;99.90
9482;DHT22;4779;48.062;11.672;2023-11-19T08:28:47;9.70;99.90
9482;DHT22;4779;48.062;11.672;2023-11-19T08:31:15;9.70;99.90
9482;DHT22;4779;48.062;11.672;2023-11-19T08:33:42;9.70;99.90
9482;DHT22;4779;48.062;11.672;2023-11-19T08:36:15;9.80;99.90
9482;DHT22;4779;48.062;11.672;2023-11-19T08:38:42;9.90;99.90
9482;DHT22;4779;48.062;11.672;2023-11-19T08:41:09;9.80;99.90
9482;DHT22;4779;48.062;11.672;2023-11-19T08:43:36;9.90;99.90
9482;DHT22;4779;48.062;11.672;2023-11-19T08:46:05;9.90;99.90
9482;DHT22;4779;48.062;11.672;2023-11-19T08:48:39;10.00;99.90
9482;DHT22;4779;48.062;11.672;2023-11-19T08:51:06;10.10;99.90
9482;DHT22;4779;48.062;11.672;2023-11-19T08:53:33;10.00;99.90
9482;DHT22;4779;48.062;11.672;2023-11-19T08:56:01;10.10;99.90
9482;DHT22;4779;48.062;11.672;2023-11-19T08:58:28;10.10;99.90
9482;DHT22;4779;48.062;11.672;2023-11-19T09:00:56;10.20;99.90
9482;DHT22;4779;48.062;11.672;2023-11-19T09:03:23;10.20;99.90
9482;DHT22;4779;48.062;11.672;2023-11-19T09:05:53;10.20;99.90
9482;DHT22;4779;48.062;11.672;2023-11-19T09:08:23;10.20;99.90
9482;DHT22;4779;48.062;11.672;2023-11-19T09:10:50;10.10;99.90
9482;DHT22;4779;48.062;11.672;2023-11-19T09:13:17;10.30;99.90
9482;DHT22;4779;48.062;11.672;2023-11-19T09:15:44;10.30;99.90
9482;DHT22;4779;48.062;11.672;2023-11-19T09:18:11;10.20;99.90
9482;DHT22;4779;48.062;11.672;2023-11-19T09:20:44;10.30;99.90
9482;DHT22;4779;48.062;11.672;2023-11-19T09:23:13;10.30;99.90
9482;DHT22;4779;48.062;11.672;2023-11-19T09:25:40;10.40;99.90
9482;DHT22;4779;48.062;11.672;2023-11-19T09:28:07;10.30;99.90
9482;DHT22;4779;48.062;11.672;2023-11-19T09:30:35;10.30;99.90
9482;DHT22;4779;48.062;11.672;2023-11-19T09:33:02;10.40;99.90
9482;DHT22;4779;48.062;11.672;2023-11-19T09:35:29;10.40;99.90
9482;DHT22;4779;48.062;11.672;2023-11-19T09:37:56;10.40;99.90
9482;DHT22;4779;48.062;11.672;2023-11-19T09:40:25;10.50;99.90
9482;DHT22;4779;48.062;11.672;2023-11-19T09:42:52;10.60;99.90
9482;DHT22;4779;48.062;11.672;2023-11-19T09:45:21;10.60;99.90
9482;DHT22;4779;48.062;11.672;2023-11-19T09:47:50;10.70;99.90
9482;DHT22;4779;48.062;11.672;2023-11-19T09:50:19;10.80;99.90
9482;DHT22;4779;48.062;11.672;2023-11-19T09:52:46;10.80;99.90
9482;DHT22;4779;48.062;11.672;2023-11-19T09:55:16;10.70;99.90
9482;DHT22;4779;48.062;11.672;2023-11-19T09:57:49;10.70;99.90
9482;DHT22;4779;48.062;11.672;2023-11-19T10:00:17;10.70;99.90
9482;DHT22;4779;48.062;11.672;2023-11-19T10:02:46;10.90;99.90
9482;DHT22;4779;48.062;11.672;2023-11-19T10:05:14;10.90;99.90
9482;DHT22;4779;48.062;11.672;2023-11-19T10:07:41;11.00;99.90
9482;DHT22;4779;48.062;11.672;2023-11-19T10:10:08;11.00;99.90
9482;DHT22;4779;48.062;11.672;2023-11-19T10:12:39;11.00;99.90
9482;DHT22;4779;48.062;11.672;2023-11-19T10:15:17;11.20;99.90
9482;DHT22;4779;48.062;11.672;2023-11-19T10:17:46;11.40;99.90
9482;DHT22;4779;48.062;11.672;2023-11-19T10:20:13;11.50;99.90
9482;DHT22;4779;48.062;11.672;2023-11-19T10:22:40;11.40;99.90
9482;DHT22;4779;48.062;11.672;2023-11-19T10:37:59;14.40;99.90
9482;DHT22;4779;48.062;11.672;2023-11-19T10:40:38;14.60;99.90
9482;DHT22;4779;48.062;11.672;2023-11-19T10:43:06;15.10;99.90
9482;DHT22;4779;48.062;11.672;2023-11-19T10:45:38;15.60;99.90
9482;DHT22;4779;48.062;11.672;2023-11-19T10:48:06;15.80;99.90
9482;DHT22;4779;48.062;11.672;2023-11-19T10:50:33;16.50;99.90
9482;DHT22;4779;48.062;11.672;2023-11-19T10:53:02;16.90;99.90
9482;DHT22;4779;48.062;11.672;2023-11-19T10:55:31;16.30;99.90
9482;DHT22;4779;48.062;11.672;2023-11-19T10:58:01;15.90;99.90
9482;DHT22;4779;48.062;11.672;2023-11-19T11:00:29;15.10;99.90
9482;DHT22;4779;48.062;11.672;2023-11-19T11:03:02;14.40;99.90
9482;DHT22;4779;48.062;11.672;2023-11-19T11:05:33;14.50;99.90
9482;DHT22;4779;48.062;11.672;2023-11-19T11:08:01;14.80;99.90
9482;DHT22;4779;48.062;11.672;2023-11-19T11:10:32;15.40;99.90
9482;DHT22;4779;48.062;11.672;2023-11-19T11:13:03;16.00;99.90
9482;DHT22;4779;48.062;11.672;2023-11-19T11:15:31;16.10;99.90
9482;DHT22;4779;48.062;11.672;2023-11-19T11:18:01;16.40;99.90
9482;DHT22;4779;48.062;11.672;2023-11-19T11:20:30;16.40;99.90
9482;DHT22;4779;48.062;11.672;2023-11-19T11:23:21;15.50;99.90
9482;DHT22;4779;48.062;11.672;2023-11-19T11:26:03;14.70;99.90
9482;DHT22;4779;48.062;11.672;2023-11-19T11:28:43;14.30;99.90
9482;DHT22;4779;48.062;11.672;2023-11-19T11:31:26;14.10;99.90
9482;DHT22;4779;48.062;11.672;2023-11-19T11:34:19;14.00;99.90
9482;DHT22;4779;48.062;11.672;2023-11-19T11:37:01;14.00;99.90
9482;DHT22;4779;48.062;11.672;2023-11-19T11:39:30;14.50;99.90
9482;DHT22;4779;48.062;11.672;2023-11-19T11:42:31;14.50;99.90
9482;DHT22;4779;48.062;11.672;2023-11-19T11:44:58;14.50;99.90
9482;DHT22;4779;48.062;11.672;2023-11-19T11:50:57;14.30;99.90
9482;DHT22;4779;48.062;11.672;2023-11-19T11:53:25;15.00;99.90
9482;DHT22;4779;48.062;11.672;2023-11-19T11:55:57;15.30;99.90
9482;DHT22;4779;48.062;11.672;2023-11-19T11:58:31;15.50;99.90
9482;DHT22;4779;48.062;11.672;2023-11-19T12:00:58;15.90;99.90
9482;DHT22;4779;48.062;11.672;2023-11-19T12:03:28;16.00;99.90
9482;DHT22;4779;48.062;11.672;2023-11-19T12:05:57;16.00;99.90
9482;DHT22;4779;48.062;11.672;2023-11-19T12:08:27;15.80;99.90
9482;DHT22;4779;48.062;11.672;2023-11-19T12:10:56;15.90;99.90
9482;DHT22;4779;48.062;11.672;2023-11-19T12:13:29;15.60;99.90
9482;DHT22;4779;48.062;11.672;2023-11-19T12:16:08;15.40;99.90
9482;DHT22;4779;48.062;11.672;2023-11-19T12:18:39;15.20;99.90
9482;DHT22;4779;48.062;11.672;2023-11-19T12:21:09;15.10;99.90
9482;DHT22;4779;48.062;11.672;2023-11-19T12:23:45;15.10;99.90
9482;DHT22;4779;48.062;11.672;2023-11-19T12:26:33;15.00;99.90
9482;DHT22;4779;48.062;11.672;2023-11-19T12:29:01;15.00;99.90
9482;DHT22;4779;48.062;11.672;2023-11-19T12:31:32;14.90;99.90
9482;DHT22;4779;48.062;11.672;2023-11-19T12:34:08;14.50;99.90
9482;DHT22;4779;48.062;11.672;2023-11-19T12:36:39;14.10;99.90
9482;DHT22;4779;48.062;11.672;2023-11-19T12:39:07;13.80;99.90
9482;DHT22;4779;48.062;11.672;2023-11-19T12:41:51;13.60;99.90
9482;DHT22;4779;48.062;11.672;2023-11-19T12:44:18;13.40;99.90
9482;DHT22;4779;48.062;11.672;2023-11-19T12:46:45;13.40;99.90
9482;DHT22;4779;48.062;11.672;2023-11-19T12:49:13;13.30;99.90
9482;DHT22;4779;48.062;11.672;2023-11-19T12:51:41;13.30;99.90
9482;DHT22;4779;48.062;11.672;2023-11-19T12:54:08;13.10;99.90
9482;DHT22;4779;48.062;11.672;2023-11-19T12:56:36;13.10;99.90
9482;DHT22;4779;48.062;11.672;2023-11-19T12:59:12;13.00;99.90
9482;DHT22;4779;48.062;11.672;2023-11-19T13:01:39;13.00;99.90
9482;DHT22;4779;48.062;11.672;2023-11-19T13:04:17;13.30;99.90
9482;DHT22;4779;48.062;11.672;2023-11-19T13:06:46;13.90;99.90
9482;DHT22;4779;48.062;11.672;2023-11-19T13:09:23;14.60;99.90
9482;DHT22;4779;48.062;11.672;2023-11-19T13:11:51;14.90;99.90
9482;DHT22;4779;48.062;11.672;2023-11-19T13:14:19;14.70;99.90
9482;DHT22;4779;48.062;11.672;2023-11-19T13:16:46;14.70;99.90
9482;DHT22;4779;48.062;11.672;2023-11-19T13:19:13;14.50;99.90
9482;DHT22;4779;48.062;11.672;2023-11-19T13:21:41;14.60;99.90
9482;DHT22;4779;48.062;11.672;2023-11-19T13:24:13;14.60;99.90
9482;DHT22;4779;48.062;11.672;2023-11-19T13:26:40;14.60;99.90
9482;DHT22;4779;48.062;11.672;2023-11-19T13:29:13;14.30;99.90
9482;DHT22;4779;48.062;11.672;2023-11-19T13:31:40;14.10;99.90
9482;DHT22;4779;48.062;11.672;2023-11-19T13:34:09;14.10;99.90
9482;DHT22;4779;48.062;11.672;2023-11-19T13:36:40;14.00;99.90
9482;DHT22;4779;48.062;11.672;2023-11-19T13:39:13;13.80;99.90
9482;DHT22;4779;48.062;11.672;2023-11-19T13:41:48;13.70;99.90
9482;DHT22;4779;48.062;11.672;2023-11-19T13:44:15;13.40;99.90
9482;DHT22;4779;48.062;11.672;2023-11-19T13:46:44;13.20;99.90
9482;DHT22;4779;48.062;11.672;2023-11-19T13:49:11;13.10;99.90
9482;DHT22;4779;48.062;11.672;2023-11-19T13:51:38;12.90;99.90
9482;DHT22;4779;48.062;11.672;2023-11-19T13:54:06;12.80;99.90
9482;DHT22;4779;48.062;11.672;2023-11-19T13:56:34;12.70;99.90
9482;DHT22;4779;48.062;11.672;2023-11-19T13:59:01;12.70;99.90
9482;DHT22;4779;48.062;11.672;2023-11-19T14:01:28;12.60;99.90
9482;DHT22;4779;48.062;11.672;2023-11-19T14:03:56;12.60;99.90
9482;DHT22;4779;48.062;11.672;2023-11-19T14:06:24;12.60;99.90
9482;DHT22;4779;48.062;11.672;2023-11-19T14:08:51;12.50;99.90
9482;DHT22;4779;48.062;11.672;2023-11-19T14:11:19;12.40;99.90
9482;DHT22;4779;48.062;11.672;2023-11-19T14:13:48;12.50;99.90
9482;DHT22;4779;48.062;11.672;2023-11-19T14:16:16;12.50;99.90
9482;DHT22;4779;48.062;11.672;2023-11-19T14:18:45;12.50;99.90
9482;DHT22;4779;48.062;11.672;2023-11-19T14:21:14;12.50;99.90
9482;DHT22;4779;48.062;11.672;2023-11-19T14:23:44;12.50;99.90
9482;DHT22;4779;48.062;11.672;2023-11-19T14:26:11;12.60;99.90
9482;DHT22;4779;48.062;11.672;2023-11-19T14:28:39;12.60;99.90
9482;DHT22;4779;48.062;11.672;2023-11-19T14:31:07;12.60;99.90
9482;DHT22;4779;48.062;11.672;2023-11-19T14:33:37;12.60;99.90
9482;DHT22;4779;48.062;11.672;2023-11-19T14:36:04;12.60;99.90
9482;DHT22;4779;48.062;11.672;2023-11-19T14:38:33;12.50;99.90
9482;DHT22;4779;48.062;11.672;2023-11-19T14:41:00;12.60;99.90
9482;DHT22;4779;48.062;11.672;2023-11-19T14:43:27;12.60;99.90
9482;DHT22;4779;48.062;11.672;2023-11-19T14:45:54;12.60;99.90
9482;DHT22;4779;48.062;11.672;2023-11-19T14:48:23;12.70;99.90
9482;DHT22;4779;48.062;11.672;2023-11-19T14:50:53;12.70;99.90
9482;DHT22;4779;48.062;11.672;2023-11-19T14:53:20;12.60;99.90
9482;DHT22;4779;48.062;11.672;2023-11-19T14:55:51;12.60;99.90
9482;DHT22;4779;48.062;11.672;2023-11-19T14:58:21;12.50;99.90
9482;DHT22;4779;48.062;11.672;2023-11-19T15:00:48;12.30;99.90
9482;DHT22;4779;48.062;11.672;2023-11-19T15:03:15;12.20;99.90
9482;DHT22;4779;48.062;11.672;2023-11-19T15:05:46;12.20;99.90
9482;DHT22;4779;48.062;11.672;2023-11-19T15:08:16;12.10;99.90
9482;DHT22;4779;48.062;11.672;2023-11-19T15:10:43;12.00;99.90
9482;DHT22;4779;48.062;11.672;2023-11-19T15:13:16;11.90;99.90
9482;DHT22;4779;48.062;11.672;2023-11-19T15:15:44;11.80;99.90
9482;DHT22;4779;48.062;11.672;2023-11-19T15:18:11;11.80;99.90
9482;DHT22;4779;48.062;11.672;2023-11-19T15:20:38;11.70;99.90
9482;DHT22;4779;48.062;11.672;2023-11-19T15:23:06;11.60;99.90
9482;DHT22;4779;48.062;11.672;2023-11-19T15:25:35;11.60;99.90
9482;DHT22;4779;48.062;11.672;2023-11-19T15:28:02;11.50;99.90
9482;DHT22;4779;48.062;11.672;2023-11-19T15:30:29;11.40;99.90
9482;DHT22;4779;48.062;11.672;2023-11-19T15:32:56;11.30;99.90
9482;DHT22;4779;48.062;11.672;2023-11-19T15:35:24;11.20;99.90
9482;DHT22;4779;48.062;11.672;2023-11-19T15:38:01;11.20;99.90
9482;DHT22;4779;48.062;11.672;2023-11-19T15:40:29;11.10;99.90
9482;DHT22;4779;48.062;11.672;2023-11-19T15:42:56;11.10;99.90
9482;DHT22;4779;48.062;11.672;2023-11-19T15:45:24;11.00;99.90
9482;DHT22;4779;48.062;11.672;2023-11-19T15:47:51;11.00;99.90
9482;DHT22;4779;48.062;11.672;2023-11-19T15:50:19;10.90;99.90
9482;DHT22;4779;48.062;11.672;2023-11-19T15:52:46;10.90;99.90
9482;DHT22;4779;48.062;11.672;2023-11-19T15:55:13;10.90;99.90
9482;DHT22;4779;48.062;11.672;2023-11-19T15:57:43;10.80;99.90
9482;DHT22;4779;48.062;11.672;2023-11-19T16:00:11;10.80;99.90
9482;DHT22;4779;48.062;11.672;2023-11-19T16:02:38;10.80;99.90
9482;DHT22;4779;48.062;11.672;2023-11-19T16:05:05;10.80;99.90
9482;DHT22;4779;48.062;11.672;2023-11-19T16:07:34;10.80;99.90
9482;DHT22;4779;48.062;11.672;2023-11-19T16:10:01;10.70;99.90
9482;DHT22;4779;48.062;11.672;2023-11-19T16:12:30;10.70;99.90
9482;DHT22;4779;48.062;11.672;2023-11-19T16:14:58;10.80;99.90
9482;DHT22;4779;48.062;11.672;2023-11-19T16:17:25;10.70;99.90
9482;DHT22;4779;48.062;11.672;2023-11-19T16:19:55;10.70;99.90